sensor_id;sensor_type;location;lat;lon;timestamp;P1;durP1;ratioP1;P2;durP2;ratioP2
38190;SDS011;25191;47.510;19.124;2023-07-31T00:07:56;2.30;;;2.10;;
38190;SDS011;25191;47.510;19.124;2023-07-31T00:27:56;2.08;;;1.88;;
38190;SDS011;25191;47.510;19.124;2023-07-31T00:47:57;1.83;;;1.65;;
38190;SDS011;25191;47.510;19.124;2023-07-31T01:08:02;3.25;;;2.03;;
38190;SDS011;25191;47.510;19.124;2023-07-31T01:28:30;4.43;;;2.17;;
38190;SDS011;25191;47.510;19.124;2023-07-31T01:48:40;5.63;;;2.70;;
38190;SDS011;25191;47.510;19.124;2023-07-31T02:08:40;4.10;;;3.13;;
38190;SDS011;25191;47.510;19.124;2023-07-31T02:28:41;5.75;;;3.42;;
38190;SDS011;25191;47.510;19.124;2023-07-31T02:48:43;4.45;;;2.70;;
38190;SDS011;25191;47.510;19.124;2023-07-31T03:08:43;3.15;;;2.38;;
38190;SDS011;25191;47.510;19.124;2023-07-31T03:28:43;3.58;;;1.98;;
38190;SDS011;25191;47.510;19.124;2023-07-31T03:48:44;3.67;;;2.30;;
38190;SDS011;25191;47.510;19.124;2023-07-31T04:08:44;4.25;;;2.00;;
38190;SDS011;25191;47.510;19.124;2023-07-31T04:28:45;2.60;;;1.98;;
38190;SDS011;25191;47.510;19.124;2023-07-31T04:48:45;2.20;;;1.80;;
38190;SDS011;25191;47.510;19.124;2023-07-31T05:08:48;2.30;;;1.50;;
38190;SDS011;25191;47.510;19.124;2023-07-31T05:28:48;2.63;;;1.52;;
38190;SDS011;25191;47.510;19.124;2023-07-31T05:48:49;2.38;;;1.58;;
38190;SDS011;25191;47.510;19.124;2023-07-31T06:08:49;1.55;;;1.38;;
38190;SDS011;25191;47.510;19.124;2023-07-31T06:28:50;3.78;;;1.52;;
38190;SDS011;25191;47.510;19.124;2023-07-31T06:48:52;2.67;;;1.50;;
38190;SDS011;25191;47.510;19.124;2023-07-31T07:08:53;8.45;;;1.40;;
38190;SDS011;25191;47.510;19.124;2023-07-31T07:28:54;23.08;;;4.90;;
38190;SDS011;25191;47.510;19.124;2023-07-31T07:48:56;11.80;;;3.30;;
38190;SDS011;25191;47.510;19.124;2023-07-31T08:08:56;6.90;;;2.20;;
38190;SDS011;25191;47.510;19.124;2023-07-31T08:28:57;3.15;;;1.50;;
38190;SDS011;25191;47.510;19.124;2023-07-31T08:48:58;2.50;;;1.30;;
38190;SDS011;25191;47.510;19.124;2023-07-31T09:08:59;4.40;;;1.67;;
38190;SDS011;25191;47.510;19.124;2023-07-31T09:29:00;3.63;;;1.33;;
38190;SDS011;25191;47.510;19.124;2023-07-31T09:49:07;2.75;;;1.33;;
38190;SDS011;25191;47.510;19.124;2023-07-31T10:09:13;3.65;;;1.27;;
38190;SDS011;25191;47.510;19.124;2023-07-31T10:29:18;3.33;;;1.38;;
38190;SDS011;25191;47.510;19.124;2023-07-31T10:49:22;8.75;;;1.38;;
38190;SDS011;25191;47.510;19.124;2023-07-31T11:09:24;3.85;;;1.30;;
38190;SDS011;25191;47.510;19.124;2023-07-31T11:29:28;4.38;;;1.10;;
38190;SDS011;25191;47.510;19.124;2023-07-31T11:49:29;4.82;;;1.10;;
38190;SDS011;25191;47.510;19.124;2023-07-31T12:09:30;5.72;;;1.33;;
38190;SDS011;25191;47.510;19.124;2023-07-31T12:29:33;2.70;;;1.00;;
38190;SDS011;25191;47.510;19.124;2023-07-31T12:49:35;2.45;;;1.23;;
38190;SDS011;25191;47.510;19.124;2023-07-31T13:09:36;3.50;;;1.20;;
38190;SDS011;25191;47.510;19.124;2023-07-31T13:29:36;3.75;;;1.08;;
38190;SDS011;25191;47.510;19.124;2023-07-31T13:49:37;2.58;;;1.63;;
38190;SDS011;25191;47.510;19.124;2023-07-31T14:09:39;1.38;;;1.00;;
38190;SDS011;25191;47.510;19.124;2023-07-31T14:29:40;3.08;;;1.25;;
38190;SDS011;25191;47.510;19.124;2023-07-31T14:49:40;1.88;;;1.00;;
38190;SDS011;25191;47.510;19.124;2023-07-31T15:09:41;1.67;;;1.23;;
38190;SDS011;25191;47.510;19.124;2023-07-31T15:29:41;1.90;;;1.05;;
38190;SDS011;25191;47.510;19.124;2023-07-31T15:49:42;2.35;;;1.00;;
38190;SDS011;25191;47.510;19.124;2023-07-31T16:09:43;3.38;;;1.50;;
38190;SDS011;25191;47.510;19.124;2023-07-31T16:29:44;2.97;;;1.20;;
38190;SDS011;25191;47.510;19.124;2023-07-31T16:49:44;3.78;;;1.40;;
38190;SDS011;25191;47.510;19.124;2023-07-31T17:09:44;5.05;;;1.77;;
38190;SDS011;25191;47.510;19.124;2023-07-31T17:29:45;6.63;;;1.63;;
38190;SDS011;25191;47.510;19.124;2023-07-31T17:49:46;3.40;;;1.38;;
38190;SDS011;25191;47.510;19.124;2023-07-31T18:09:47;2.65;;;1.23;;
38190;SDS011;25191;47.510;19.124;2023-07-31T18:29:47;2.15;;;1.48;;
38190;SDS011;25191;47.510;19.124;2023-07-31T18:49:49;6.53;;;1.77;;
38190;SDS011;25191;47.510;19.124;2023-07-31T19:09:50;3.08;;;1.30;;
38190;SDS011;25191;47.510;19.124;2023-07-31T19:29:51;5.35;;;1.80;;
38190;SDS011;25191;47.510;19.124;2023-07-31T19:49:52;3.10;;;1.85;;
38190;SDS011;25191;47.510;19.124;2023-07-31T20:09:56;4.13;;;2.07;;
38190;SDS011;25191;47.510;19.124;2023-07-31T20:29:58;4.60;;;1.83;;
38190;SDS011;25191;47.510;19.124;2023-07-31T20:49:59;4.03;;;2.22;;
38190;SDS011;25191;47.510;19.124;2023-07-31T21:09:59;6.40;;;2.13;;
38190;SDS011;25191;47.510;19.124;2023-07-31T21:30:00;6.22;;;2.30;;
38190;SDS011;25191;47.510;19.124;2023-07-31T21:50:00;3.97;;;2.58;;
38190;SDS011;25191;47.510;19.124;2023-07-31T22:10:01;4.15;;;2.10;;
38190;SDS011;25191;47.510;19.124;2023-07-31T22:30:02;6.90;;;2.63;;
38190;SDS011;25191;47.510;19.124;2023-07-31T22:50:04;5.40;;;2.45;;
38190;SDS011;25191;47.510;19.124;2023-07-31T23:10:05;3.13;;;2.25;;
38190;SDS011;25191;47.510;19.124;2023-07-31T23:30:05;4.57;;;2.33;;
38190;SDS011;25191;47.510;19.124;2023-07-31T23:50:07;3.50;;;2.40;;
